Historyczne dane pomiarowe

Dodano dane terminowe – wersja testowa.

Dane z okresu 1951-2019

Wersja bazy: 1.34 [2019-03-16, lista zmian], aktualizacja planowana na 2019-04-15

Dane meteo z obszaru Polski uzyskane na podstawie danych udostępnionych przez Instytut Meteorologii i Gospodarki Wodnej – Państwowy Instytut Badawczy.

 

Wybierz Datę:    

       

TemperaturaWilgotnośćWiatrCiśnienieOpadyŚniegCzas trwania zjawisk
 Stacja t tx tn tng RH VA  wxwx mslp ppp RRR   cm mm wxwxwxwxwxwxwx
1999-08-14 12.6 19.6 6.0- 87.3- 2.0 0.7---- 0.0------------
1999-08-13 13.6 17.1 8.6- 88.8- 7.3 1.0---- 0.0------------
1999-08-12 15.9 20.2 13.3- 92.3- 5.3 0.0---- 0.0------------
1999-08-11 19.7 25.5 15.5- 92.8- 8.0 0.0---- 0.1------------
1999-08-10 22.4 29.0 16.1- 83.0- 6.7 1.3---- 0.2------------
1999-08-09 21.5 29.0 13.4- 87.8- 4.0 1.0---- 0.0------------
1999-08-08 19.3 23.1 14.1- 90.5- 5.3 1.0---- 0.0------------
1999-08-07 19.7 26.5 12.5- 88.0- 6.0 1.0---- 0.0------------
1999-08-06 18.0 23.1 11.5- 80.0- 7.3 0.7---- 0.2------------
1999-08-05 15.6 24.0 7.5- 84.0- 2.3 1.3---- 0.0------------
1999-08-04 15.0 21.9 8.5- 85.8- 5.3 0.0---- 0.0------------
1999-08-03 15.5 20.1 11.8- 86.5- 6.0 1.0---- 0.0------------
1999-08-02 14.9 18.1 12.9- 93.5- 8.0 1.0---- 0.4------------
1999-08-01 16.8 21.7 12.9- 77.5- 5.7 1.7---- 0.0------------
1999-07-31 15.6 21.1 9.9- 80.0- 5.7 0.7---- 1.8------------
1999-07-30 15.2 22.1 6.0- 71.5- 1.3 0.0---- 0.0------------
1999-07-29 16.6 21.1 12.9- 71.8- 5.3 1.0---- 0.0------------
1999-07-28 17.7 21.1 15.9- 88.8- 5.3 0.7---- 0.0------------
1999-07-27 19.0 24.1 15.4- 86.3- 8.0 0.7---- 0.0------------
1999-07-26 20.7 27.0 14.1- 86.0- 6.7 0.7---- 0.0------------
1999-07-25 16.5 21.9 10.6- 90.8- 7.7 0.3---- 0.0------------
1999-07-24 15.6 19.6 12.0- 83.5- 5.0 0.7---- 0.0------------
1999-07-23 14.9 19.1 12.4- 95.5- 8.0 1.3---- 11.7------------
1999-07-22 19.1 25.0 13.5- 87.5- 7.3 0.3---- 22.2------------
1999-07-21 19.6 26.6 10.5- 82.8- 3.3 0.7---- 0.0------------
1999-07-20 18.0 26.5 8.2- 76.0- 2.0 0.3---- 0.0------------
1999-07-19 15.8 24.2 6.0- 77.8- 3.0 0.0---- 0.0------------
1999-07-18 15.1 22.1 7.5- 82.0- 3.0 0.0---- 0.0------------
1999-07-17 13.8 21.3 6.8- 80.3- 5.0 0.0---- 0.0------------
1999-07-16 14.4 21.1 7.0- 87.8- 5.7 0.3---- 0.0------------
1999-07-15 16.5 19.6 13.9- 91.3- 5.7 1.0---- 7.4------------
1999-07-14 18.7 21.1 15.9- 90.8- 8.0 1.0---- 22.0------------
1999-07-13 18.2 22.1 13.7- 88.3- 5.7 1.0---- 0.6------------
1999-07-12 18.8 24.5 13.1- 81.8- 5.7 0.3---- 0.0------------
1999-07-11 20.3 24.0 16.9- 79.5- 8.0 0.7---- 6.0------------
1999-07-10 18.1 22.7 15.8- 94.5- 8.0 3.0---- 0.0------------
1999-07-09 21.0 26.0 17.3- 86.0- 7.3 1.3---- 0.0------------
1999-07-08 21.8 26.8 18.3- 84.8- 5.7 0.0---- 0.0------------
1999-07-07 22.2 29.2 16.1- 73.8- 4.3 1.0---- 2.0------------
1999-07-06 22.6 28.6 12.4- 64.0- 1.3 3.3---- 0.0------------
1999-07-05 20.8 28.6 9.6- 74.5- 0.3 1.0---- 0.0------------
1999-07-04 19.1 27.0 10.0- 75.5- 0.7 0.3---- 0.0------------
1999-07-03 18.1 23.6 11.0- 82.3- 2.3 0.3---- 0.0------------
1999-07-02 17.8 25.0 9.0- 84.0- 6.0 0.0---- 0.0------------
1999-07-01 16.8 24.0 8.6- 82.0- 4.0 0.7---- 0.0------------
1999-06-30 18.4 25.0 10.2- 82.3- 2.3 1.0---- 0.0------------
1999-06-29 16.8 21.6 9.4- 85.0- 5.3 0.3---- 0.0------------
1999-06-28 18.2 25.8 7.0- 67.5- 2.3 1.0---- 0.0------------
1999-06-27 16.1 25.0 5.5- 67.8- 0.0 1.0---- 0.0------------
1999-06-26 13.4 22.6 4.0- 76.8- 1.0 1.3---- 0.0------------
1999-06-25 12.9 18.1 8.6- 88.8- 4.0 0.0---- 0.0------------
1999-06-24 9.4 10.5 8.6- 97.5- 8.0 1.7---- 24.1------------
1999-06-23 8.6 10.0 7.2- 95.5- 8.0 2.7---- 9.3------------
1999-06-22 12.5 16.5 9.2- 98.8- 8.0 2.7---- 10.7------------
1999-06-21 16.3 23.1 11.5- 93.0- 8.0 0.7---- 18.1------------
1999-06-20 18.4 23.6 14.9- 90.0- 7.3 1.0---- 12.7------------
1999-06-19 17.2 21.6 12.0- 85.0- 7.3 2.0---- 0.0------------
1999-06-18 18.2 25.0 12.7- 87.8- 5.7 0.0---- 0.0------------
1999-06-17 18.2 22.6 15.4- 94.5- 8.0 0.7---- 0.5------------
1999-06-16 18.1 21.6 15.9- 96.3- 7.0 0.3---- 10.2------------
311.8 ms

 

Źródłem pochodzenia danych jest Instytut Meteorologii i Gospodarki Wodnej – Państwowy Instytut Badawczy. Dane Instytutu Meteorologii i Gospodarki Wodnej – Państwowego Instytutu Badawczego zostały przetworzone.

Dane źródłowe można odnaleźć na stronie https://dane.imgw.pl